Latest Weather Observations for Melville Water

IDW60901

Issued at 9:41 am WST Tuesday 23 April 2024 (issued every 10 minutes, with the page automatically refreshed every 10 minutes)

About weather observations | Map of Perth area stations | Latest observations for Perth area | Other Formats
Station Details ID: 009091 Name: INNER DOLPHIN PYLON Lat: -31.99 Lon: 115.83 Height: 0.0 m
Data from the previous 72 hours. | See also: Recent months at Melville Water
Date/Time
WST
Temp
°C
App
Temp
°C
Dew
Point
°C
Rel
Hum
%
Delta-T
°C
Wind Press
QNH
hPa
Press
MSL
hPa
Rain since
9am
mm
Dir  Spd
km/h
Gust
km/h
Spd
kts
Gust
kts
23/09:31am - - - - - E 30 48 16 26 - - -
23/09:30am - - - - - E 28 43 15 23 - - -
23/09:00am - - - - - ESE 22 32 12 17 - - -
23/08:30am - - - - - SE 22 28 12 15 - - -
23/08:00am - - - - - SE 24 32 13 17 - - -
23/07:30am - - - - - SE 24 33 13 18 - - -
23/07:00am - - - - - SE 26 33 14 18 - - -
23/06:30am - - - - - SE 26 33 14 18 - - -
23/06:00am - - - - - SE 24 32 13 17 - - -
23/05:30am - - - - - ESE 24 30 13 16 - - -
23/05:00am - - - - - ESE 24 33 13 18 - - -
23/04:30am - - - - - SE 24 32 13 17 - - -
23/04:00am - - - - - SE 19 24 10 13 - - -
23/03:30am - - - - - SE 22 33 12 18 - - -
23/03:00am - - - - - SE 20 30 11 16 - - -
23/02:30am - - - - - SE 22 28 12 15 - - -
23/02:00am - - - - - SE 22 30 12 16 - - -
23/01:30am - - - - - SE 24 32 13 17 - - -
23/01:00am - - - - - SE 26 33 14 18 - - -
23/12:30am - - - - - SE 26 37 14 20 - - -
23/12:00am - - - - - SE 30 39 16 21 - - -
 
Date/Time
WST
Temp
°C
App
Temp
°C
Dew
Point
°C
Rel
Hum
%
Delta-T
°C
Wind Press
QNH
hPa
Press
MSL
hPa
Rain since
9am
mm
Dir  Spd
km/h
Gust
km/h
Spd
kts
Gust
kts
22/11:30pm - - - - - SE 24 30 13 16 - - -
22/11:00pm - - - - - SE 32 41 17 22 - - -
22/10:30pm - - - - - SE 28 37 15 20 - - -
22/10:00pm - - - - - SE 32 39 17 21 - - -
22/09:30pm - - - - - SE 24 33 13 18 - - -
22/09:00pm - - - - - SE 30 39 16 21 - - -
22/08:30pm - - - - - SE 26 35 14 19 - - -
22/08:00pm - - - - - SE 28 39 15 21 - - -
22/07:30pm - - - - - SE 20 26 11 14 - - -
22/07:00pm - - - - - SE 20 26 11 14 - - -
22/06:30pm - - - - - ESE 22 35 12 19 - - -
22/06:00pm - - - - - ESE 26 33 14 18 - - -
22/05:30pm - - - - - SE 22 30 12 16 - - -
22/05:00pm - - - - - ESE 24 28 13 15 - - -
22/04:30pm - - - - - SE 24 35 13 19 - - -
22/04:00pm - - - - - SE 33 46 18 25 - - -
22/03:30pm - - - - - SE 24 35 13 19 - - -
22/03:00pm - - - - - SE 37 44 20 24 - - -
22/02:50pm - - - - - SSE 32 52 17 28 - - -
22/02:30pm - - - - - SE 32 44 17 24 - - -
22/02:00pm - - - - - SE 28 37 15 20 - - -
22/01:30pm - - - - - SSE 35 54 19 29 - - -
22/01:28pm - - - - - SSE 35 54 19 29 - - -
22/01:00pm - - - - - SSE 33 43 18 23 - - -
22/12:30pm - - - - - SSE 35 46 19 25 - - -
22/12:00pm - - - - - SSE 30 39 16 21 - - -
22/11:30am - - - - - SSE 30 37 16 20 - - -
22/11:00am - - - - - SSE 28 37 15 20 - - -
22/10:30am - - - - - S 30 43 16 23 - - -
22/10:00am - - - - - S 24 33 13 18 - - -
22/09:30am - - - - - S 26 35 14 19 - - -
22/09:00am - - - - - SSE 20 30 11 16 - - -
22/08:30am - - - - - SSE 19 24 10 13 - - -
22/08:00am - - - - - SSE 15 22 8 12 - - -
22/07:30am - - - - - SSE 19 24 10 13 - - -
22/07:00am - - - - - SSE 9 13 5 7 - - -
22/06:30am - - - - - S 9 11 5 6 - - -
22/06:00am - - - - - S 13 17 7 9 - - -
22/05:30am - - - - - SE 15 19 8 10 - - -
22/05:00am - - - - - SSE 17 22 9 12 - - -
22/04:30am - - - - - SSE 17 20 9 11 - - -
22/04:00am - - - - - S 17 22 9 12 - - -
22/03:30am - - - - - S 20 24 11 13 - - -
22/03:00am - - - - - S 13 17 7 9 - - -
22/02:30am - - - - - SSE 11 15 6 8 - - -
22/02:00am - - - - - S 15 19 8 10 - - -
22/01:30am - - - - - S 17 22 9 12 - - -
22/01:00am - - - - - SSE 15 19 8 10 - - -
22/12:30am - - - - - S 13 17 7 9 - - -
22/12:00am - - - - - SSE 9 13 5 7 - - -
 
Date/Time
WST
Temp
°C
App
Temp
°C
Dew
Point
°C
Rel
Hum
%
Delta-T
°C
Wind Press
QNH
hPa
Press
MSL
hPa
Rain since
9am
mm
Dir  Spd
km/h
Gust
km/h
Spd
kts
Gust
kts
21/11:30pm - - - - - S 9 13 5 7 - - -
21/11:00pm - - - - - S 11 17 6 9 - - -
21/10:30pm - - - - - SSE 11 15 6 8 - - -
21/10:00pm - - - - - SSE 13 19 7 10 - - -
21/09:30pm - - - - - S 9 17 5 9 - - -
21/09:00pm - - - - - SSW 9 13 5 7 - - -
21/08:30pm - - - - - SSW 13 17 7 9 - - -
21/08:00pm - - - - - SSW 15 19 8 10 - - -
21/07:30pm - - - - - SSW 13 17 7 9 - - -
21/07:00pm - - - - - SSW 13 15 7 8 - - -
21/06:30pm - - - - - SW 11 15 6 8 - - -
21/06:00pm - - - - - SSW 15 17 8 9 - - -
21/05:30pm - - - - - SW 9 11 5 6 - - -
21/05:00pm - - - - - SW 9 13 5 7 - - -
21/04:30pm - - - - - WSW 11 13 6 7 - - -
21/04:00pm - - - - - SW 13 17 7 9 - - -
21/03:30pm - - - - - SW 15 19 8 10 - - -
21/03:00pm - - - - - WSW 17 20 9 11 - - -
21/02:30pm - - - - - WSW 22 30 12 16 - - -
21/02:00pm - - - - - W 20 30 11 16 - - -
21/01:30pm - - - - - WNW 17 22 9 12 - - -
21/01:00pm - - - - - WNW 19 28 10 15 - - -
21/12:30pm - - - - - NW 15 20 8 11 - - -
21/12:00pm - - - - - N 9 20 5 11 - - -
21/11:30am - - - - - NNW 7 15 4 8 - - -
21/11:00am - - - - - SE 2 6 1 3 - - -
21/10:30am - - - - - SSE 6 7 3 4 - - -
21/10:00am - - - - - E 6 7 3 4 - - -
21/09:30am - - - - - NE 6 9 3 5 - - -
21/09:00am - - - - - NE 9 13 5 7 - - -
21/08:30am - - - - - NE 13 19 7 10 - - -
21/08:00am - - - - - E 7 11 4 6 - - -
21/07:30am - - - - - E 11 13 6 7 - - -
21/07:00am - - - - - E 11 13 6 7 - - -
21/06:30am - - - - - E 15 17 8 9 - - -
21/06:00am - - - - - ENE 7 11 4 6 - - -
21/05:30am - - - - - ENE 15 19 8 10 - - -
21/05:00am - - - - - NE 17 20 9 11 - - -
21/04:30am - - - - - ESE 6 7 3 4 - - -
21/04:00am - - - - - E 6 9 3 5 - - -
21/03:30am - - - - - ESE 9 11 5 6 - - -
21/03:00am - - - - - ESE 6 7 3 4 - - -
21/02:30am - - - - - ESE 6 6 3 3 - - -
21/02:00am - - - - - S 6 7 3 4 - - -
21/01:30am - - - - - SE 2 6 1 3 - - -
21/01:00am - - - - - SSE 4 4 2 2 - - -
21/12:30am - - - - - SW 6 6 3 3 - - -
21/12:00am - - - - - SW 2 6 1 3 - - -
 
Date/Time
WST
Temp
°C
App
Temp
°C
Dew
Point
°C
Rel
Hum
%
Delta-T
°C
Wind Press
QNH
hPa
Press
MSL
hPa
Rain since
9am
mm
Dir  Spd
km/h
Gust
km/h
Spd
kts
Gust
kts
20/11:30pm - - - - - ESE 4 4 2 2 - - -
20/11:00pm - - - - - E 6 7 3 4 - - -
20/10:30pm - - - - - SSE 2 6 1 3 - - -
20/10:00pm - - - - - SSE 6 7 3 4 - - -
20/09:30pm - - - - - CALM 0 4 0 2 - - -
20/09:00pm - - - - - SSW 6 7 3 4 - - -
20/08:30pm - - - - - ESE 6 7 3 4 - - -
20/08:00pm - - - - - ESE 6 9 3 5 - - -
20/07:30pm - - - - - SSE 6 9 3 5 - - -
20/07:00pm - - - - - SSE 6 6 3 3 - - -
20/06:30pm - - - - - S 9 11 5 6 - - -
20/06:00pm - - - - - SSW 9 13 5 7 - - -
20/05:30pm - - - - - SSW 13 15 7 8 - - -
20/05:00pm - - - - - SW 13 15 7 8 - - -
20/04:30pm - - - - - SW 17 19 9 10 - - -
20/04:00pm - - - - - SW 19 22 10 12 - - -
20/03:30pm - - - - - SW 20 22 11 12 - - -
20/03:00pm - - - - - SW 17 20 9 11 - - -
20/02:30pm - - - - - SW 13 19 7 10 - - -
20/02:00pm - - - - - SW 15 17 8 9 - - -
20/01:30pm - - - - - SW 9 11 5 6 - - -
20/01:00pm - - - - - SE 4 4 2 2 - - -
20/12:30pm - - - - - SE 6 7 3 4 - - -
20/12:00pm - - - - - E 7 9 4 5 - - -
20/11:30am - - - - - ENE 11 15 6 8 - - -
20/11:00am - - - - - NE 9 11 5 6 - - -
20/10:30am - - - - - NE 15 24 8 13 - - -
20/10:00am - - - - - NE 20 26 11 14 - - -

Latest Capital City Observations: Canberra | Sydney | Melbourne | Brisbane | Adelaide | Perth | Hobart | Darwin

Other formats

Comma delimited format used in spreadsheet applications
http://www.bom.gov.au/fwo/IDW60901/IDW60901.95620.axf

JavaScript Object Notation format (JSON) in row-major order
http://www.bom.gov.au/fwo/IDW60901/IDW60901.95620.json

Data quality

Most of these data are generated automatically and are frequently updated. Quality checks on data are not normally performed. It is possible for incorrect values to appear. Refer to information at About Latest Weather Observations and please check the disclaimer before using these data.